createdAt,value
2022-08-09T00:01:20.728Z,19.8
2022-08-09T00:04:20.725Z,19.8
2022-08-09T00:07:20.759Z,19.8
2022-08-09T00:10:20.736Z,19.7
2022-08-09T00:13:20.745Z,19.7
2022-08-09T00:16:20.756Z,19.7
2022-08-09T00:19:20.760Z,19.7
2022-08-09T00:22:20.761Z,19.7
2022-08-09T00:25:20.756Z,19.7
2022-08-09T00:28:20.772Z,19.6
2022-08-09T00:31:20.769Z,19.6
2022-08-09T00:34:20.786Z,19.6
2022-08-09T00:37:20.781Z,19.6
2022-08-09T00:40:20.782Z,19.6
2022-08-09T00:43:20.795Z,19.6
2022-08-09T00:46:20.803Z,19.5
2022-08-09T00:49:20.825Z,19.5
2022-08-09T00:52:20.838Z,19.5
2022-08-09T00:55:20.806Z,19.5
2022-08-09T00:58:20.816Z,19.4
2022-08-09T01:01:20.814Z,19.4
2022-08-09T01:04:20.833Z,19.4
2022-08-09T01:07:20.840Z,19.4
2022-08-09T01:10:20.841Z,19.4
2022-08-09T01:13:20.844Z,19.3
2022-08-09T01:16:20.886Z,19.3
2022-08-09T01:19:20.863Z,19.3
2022-08-09T01:22:20.860Z,19.3
2022-08-09T01:25:20.889Z,19.3
2022-08-09T01:28:20.880Z,19.3
2022-08-09T01:31:20.878Z,19.2
2022-08-09T01:34:20.885Z,19.2
2022-08-09T01:37:20.902Z,19.2
2022-08-09T01:40:20.898Z,19.2
2022-08-09T01:43:20.897Z,19.2
2022-08-09T01:46:20.911Z,19.2
2022-08-09T01:49:20.908Z,19.1
2022-08-09T01:52:20.925Z,19.1
2022-08-09T01:55:20.945Z,19.1
2022-08-09T01:58:20.920Z,19.1
2022-08-09T02:01:20.938Z,19.1
2022-08-09T02:04:20.940Z,19.1
2022-08-09T02:07:20.968Z,19.1
2022-08-09T02:10:20.947Z,19.1
2022-08-09T02:13:20.947Z,19
2022-08-09T02:16:20.958Z,19
2022-08-09T02:19:20.977Z,19
2022-08-09T02:22:20.964Z,19
2022-08-09T02:25:20.981Z,19
2022-08-09T02:28:20.989Z,19
2022-08-09T02:31:20.994Z,18.9
2022-08-09T02:34:20.996Z,19
2022-08-09T02:37:20.987Z,18.9
2022-08-09T02:40:21.008Z,18.9
2022-08-09T02:43:21.004Z,18.9
2022-08-09T02:46:21.017Z,18.9
2022-08-09T02:49:21.012Z,18.9
2022-08-09T02:52:21.035Z,18.9
2022-08-09T02:55:21.036Z,18.9
2022-08-09T02:58:21.036Z,18.8
2022-08-09T03:01:21.054Z,18.9
2022-08-09T03:04:21.037Z,18.8
2022-08-09T03:07:21.061Z,18.8
2022-08-09T03:10:21.054Z,18.8
2022-08-09T03:13:21.062Z,18.8
2022-08-09T03:16:21.077Z,18.8
2022-08-09T03:19:21.060Z,18.7
2022-08-09T03:22:21.068Z,18.7
2022-08-09T03:25:21.078Z,18.7
2022-08-09T03:28:21.105Z,18.7
2022-08-09T03:31:21.101Z,18.7
2022-08-09T03:34:21.107Z,18.7
2022-08-09T03:37:21.099Z,18.6
2022-08-09T03:40:21.104Z,18.6
2022-08-09T03:43:21.124Z,18.6
2022-08-09T03:46:21.114Z,18.6
2022-08-09T03:49:21.132Z,18.6
2022-08-09T03:52:21.131Z,18.6
2022-08-09T03:55:21.145Z,18.5
2022-08-09T03:58:21.159Z,18.5
2022-08-09T04:01:21.151Z,18.5
2022-08-09T04:04:21.151Z,18.5
2022-08-09T04:07:21.164Z,18.5
2022-08-09T04:10:21.153Z,18.5
2022-08-09T04:13:21.162Z,18.5
2022-08-09T04:16:21.160Z,18.5
2022-08-09T04:19:21.171Z,18.4
2022-08-09T04:22:21.180Z,18.4
2022-08-09T04:25:21.181Z,18.4
2022-08-09T04:28:21.199Z,18.4
2022-08-09T04:31:21.206Z,18.4
2022-08-09T04:34:21.187Z,18.4
2022-08-09T04:37:21.214Z,18.4
2022-08-09T04:40:21.209Z,18.3
2022-08-09T04:43:21.207Z,18.3
2022-08-09T04:46:21.217Z,18.3
2022-08-09T04:49:21.240Z,18.3
2022-08-09T04:52:21.241Z,18.3
2022-08-09T04:55:21.231Z,18.3
2022-08-09T04:58:21.235Z,18.3
2022-08-09T05:01:21.237Z,18.3
2022-08-09T05:04:21.240Z,18.2
2022-08-09T05:07:21.241Z,18.2
2022-08-09T05:10:21.246Z,18.2
2022-08-09T05:13:21.260Z,18.2
2022-08-09T05:16:21.279Z,18.2
2022-08-09T05:19:21.260Z,18.2
2022-08-09T05:22:21.279Z,18.2
2022-08-09T05:25:21.269Z,18.2
2022-08-09T05:28:21.274Z,18.2
2022-08-09T05:31:21.288Z,18.2
2022-08-09T05:34:21.291Z,18.2
2022-08-09T05:37:21.293Z,18.2
2022-08-09T05:40:21.305Z,18.2
2022-08-09T05:43:21.323Z,18.2
2022-08-09T05:46:21.327Z,18.2
2022-08-09T05:49:21.318Z,18.3
2022-08-09T05:52:21.335Z,18.3
2022-08-09T05:55:21.339Z,18.3
2022-08-09T05:58:21.359Z,18.3
2022-08-09T06:01:21.342Z,18.3
2022-08-09T06:04:21.340Z,18.4
2022-08-09T06:07:21.364Z,18.4
2022-08-09T06:10:21.362Z,18.4
2022-08-09T06:13:21.366Z,18.5
2022-08-09T06:16:21.380Z,18.5
2022-08-09T06:19:21.371Z,18.5
2022-08-09T06:22:21.367Z,18.6
2022-08-09T06:25:21.389Z,18.7
2022-08-09T06:28:21.383Z,18.7
2022-08-09T06:31:21.400Z,18.8
2022-08-09T06:34:21.412Z,18.8
2022-08-09T06:37:21.431Z,18.9
2022-08-09T06:40:21.416Z,18.9
2022-08-09T06:43:21.413Z,19
2022-08-09T06:46:21.430Z,19
2022-08-09T06:49:21.425Z,19.1
2022-08-09T06:52:21.444Z,19.1
2022-08-09T06:55:21.445Z,19.1
2022-08-09T06:58:21.453Z,19.2
2022-08-09T07:01:21.448Z,19.2
2022-08-09T07:04:21.453Z,19.3
2022-08-09T07:07:21.462Z,19.3
2022-08-09T07:10:21.459Z,19.3
2022-08-09T07:13:21.490Z,19.4
2022-08-09T07:16:21.478Z,19.4
2022-08-09T07:19:21.490Z,19.4
2022-08-09T07:22:21.502Z,19.5
2022-08-09T07:25:21.491Z,19.5
2022-08-09T07:28:21.487Z,19.6
2022-08-09T07:31:21.502Z,19.6
2022-08-09T07:34:21.497Z,19.6
2022-08-09T07:37:21.513Z,19.7
2022-08-09T07:40:21.563Z,19.7
2022-08-09T07:43:21.521Z,19.8
2022-08-09T07:46:21.523Z,19.8
2022-08-09T07:49:21.520Z,19.8
2022-08-09T07:52:21.536Z,19.9
2022-08-09T07:55:21.531Z,19.9
2022-08-09T07:58:21.557Z,20
2022-08-09T08:01:21.590Z,20
2022-08-09T08:04:21.554Z,20.1
2022-08-09T08:07:21.564Z,20.1
2022-08-09T08:10:21.573Z,20.2
2022-08-09T08:13:21.563Z,20.2
2022-08-09T08:16:21.573Z,20.2
2022-08-09T08:19:21.562Z,20.3
2022-08-09T08:22:21.582Z,20.4
2022-08-09T08:25:21.591Z,20.4
2022-08-09T08:28:21.587Z,20.5
2022-08-09T08:31:21.593Z,20.6
2022-08-09T08:34:21.612Z,20.6
2022-08-09T08:37:21.623Z,20.6
2022-08-09T08:40:21.634Z,20.7
2022-08-09T08:43:23.106Z,20.8
2022-08-09T08:46:21.642Z,20.8
2022-08-09T08:49:21.640Z,20.9
2022-08-09T08:52:21.651Z,20.9
2022-08-09T08:55:21.646Z,21
2022-08-09T08:58:21.649Z,21
2022-08-09T09:01:21.672Z,21
2022-08-09T09:04:21.677Z,21.1
2022-08-09T09:07:21.666Z,21.1
2022-08-09T09:10:21.676Z,21.2
2022-08-09T09:13:21.715Z,21.2
2022-08-09T09:16:21.696Z,21.2
2022-08-09T09:19:21.690Z,21.3
2022-08-09T09:22:21.743Z,21.3
2022-08-09T09:25:21.699Z,21.4
2022-08-09T09:28:25.820Z,21.4
2022-08-09T09:31:21.710Z,21.4
2022-08-09T09:34:21.727Z,21.5
2022-08-09T09:37:21.723Z,21.5
2022-08-09T09:40:21.739Z,21.5
2022-08-09T09:43:21.722Z,21.6
2022-08-09T09:46:21.731Z,21.6
2022-08-09T09:49:21.743Z,21.7
2022-08-09T09:52:21.746Z,21.7
2022-08-09T09:55:21.744Z,21.7
2022-08-09T09:58:21.751Z,21.8
2022-08-09T10:01:21.758Z,21.9
2022-08-09T10:04:21.769Z,21.9
2022-08-09T10:07:21.767Z,22
2022-08-09T10:10:21.761Z,22.1
2022-08-09T10:13:21.770Z,22.2
2022-08-09T10:16:21.776Z,22.3
2022-08-09T10:19:21.783Z,22.4
2022-08-09T10:22:21.797Z,22.6
2022-08-09T10:25:21.777Z,22.7
2022-08-09T10:28:21.796Z,22.8
2022-08-09T10:31:21.815Z,23
2022-08-09T10:34:21.812Z,23.2
2022-08-09T10:37:21.845Z,23.4
2022-08-09T10:40:21.824Z,23.6
2022-08-09T10:43:21.832Z,23.8
2022-08-09T10:46:21.840Z,24
2022-08-09T10:49:21.837Z,24.3
2022-08-09T10:52:21.833Z,24.5
2022-08-09T10:55:21.856Z,24.7
2022-08-09T10:58:21.850Z,25
2022-08-09T11:01:21.850Z,25.2
2022-08-09T11:04:21.871Z,25.5
2022-08-09T11:07:21.876Z,25.7
2022-08-09T11:10:21.882Z,26
2022-08-09T11:13:21.889Z,26.3
2022-08-09T11:16:21.899Z,26.6
2022-08-09T11:19:21.896Z,26.9
2022-08-09T11:22:21.902Z,27.2
2022-08-09T11:25:21.901Z,27.4
2022-08-09T11:28:21.909Z,27.7
2022-08-09T11:31:21.922Z,28
2022-08-09T11:34:21.922Z,28.2
2022-08-09T11:37:21.931Z,28.5
2022-08-09T11:40:21.940Z,28.7
2022-08-09T11:43:21.937Z,28.9
2022-08-09T11:46:21.953Z,29.1
2022-08-09T11:49:21.968Z,29.4
2022-08-09T11:52:21.958Z,29.6
2022-08-09T11:55:21.953Z,29.9
2022-08-09T11:58:21.963Z,30.1
2022-08-09T12:01:21.951Z,30.4
2022-08-09T12:04:21.967Z,30.7
2022-08-09T12:07:21.966Z,31
2022-08-09T12:10:21.975Z,31.3
2022-08-09T12:13:21.976Z,31.5
2022-08-09T12:16:21.993Z,31.8
2022-08-09T12:19:21.992Z,32
2022-08-09T12:22:22.001Z,32.2
2022-08-09T12:25:22.000Z,32.4
2022-08-09T12:28:22.011Z,32.5
2022-08-09T12:31:22.014Z,32.7
2022-08-09T12:34:21.992Z,32.8
2022-08-09T12:37:22.007Z,33
2022-08-09T12:40:22.031Z,33.2
2022-08-09T12:43:22.040Z,33.4
2022-08-09T12:46:22.038Z,33.5
2022-08-09T12:49:22.041Z,33.7
2022-08-09T12:52:22.046Z,33.8
2022-08-09T12:55:22.042Z,33.9
2022-08-09T12:58:22.060Z,34.1
2022-08-09T13:01:22.079Z,34.3
2022-08-09T13:04:22.072Z,34.4
2022-08-09T13:07:22.064Z,34.6
2022-08-09T13:10:22.078Z,34.7
2022-08-09T13:13:22.062Z,34.9
2022-08-09T13:16:22.082Z,35
2022-08-09T13:19:22.095Z,35.2
2022-08-09T13:22:22.093Z,35.3
2022-08-09T13:25:22.101Z,35.5
2022-08-09T13:28:22.099Z,35.8
2022-08-09T13:31:22.118Z,35.9
2022-08-09T13:34:22.116Z,36.1
2022-08-09T13:37:22.123Z,36.3
2022-08-09T13:40:22.115Z,36.4
2022-08-09T13:43:22.146Z,36.5
2022-08-09T13:46:42.163Z,36.7
2022-08-09T13:52:22.144Z,37
2022-08-09T13:55:22.149Z,37.2
2022-08-09T13:58:22.155Z,37.4
2022-08-09T14:01:22.173Z,37.5
2022-08-09T14:04:22.212Z,37.7
2022-08-09T14:07:22.172Z,37.9
2022-08-09T14:10:22.170Z,38.1
2022-08-09T14:13:22.163Z,38.2
2022-08-09T14:16:22.184Z,38.2
2022-08-09T14:19:22.182Z,38.1
2022-08-09T14:22:22.200Z,38
2022-08-09T14:25:22.196Z,38
2022-08-09T14:28:22.193Z,37.9
2022-08-09T14:31:22.203Z,38
2022-08-09T14:34:22.231Z,38
2022-08-09T14:37:22.213Z,38
2022-08-09T14:40:22.223Z,38.1
2022-08-09T14:43:22.222Z,38.3
2022-08-09T14:46:22.219Z,38.4
2022-08-09T14:49:22.234Z,38.5
2022-08-09T14:52:22.230Z,38.6
2022-08-09T14:55:22.254Z,38.6
2022-08-09T14:58:22.235Z,38.7
2022-08-09T15:01:22.258Z,38.9
2022-08-09T15:04:22.254Z,39
2022-08-09T15:07:22.262Z,39
2022-08-09T15:10:22.276Z,39.1
2022-08-09T15:13:22.278Z,39
2022-08-09T15:16:22.271Z,39.1
2022-08-09T15:19:26.013Z,39.2
2022-08-09T15:22:22.331Z,39.3
2022-08-09T15:25:22.296Z,39.3
2022-08-09T15:28:22.290Z,39.3
2022-08-09T15:31:22.334Z,39.3
2022-08-09T15:34:22.315Z,39.3
2022-08-09T15:37:22.309Z,39.2
2022-08-09T15:40:22.316Z,39.2
2022-08-09T15:43:22.328Z,39.2
2022-08-09T15:46:22.316Z,39.1
2022-08-09T15:49:22.341Z,38.9
2022-08-09T15:52:22.327Z,38.9
2022-08-09T15:55:22.357Z,38.7
2022-08-09T15:58:22.344Z,38.8
2022-08-09T16:01:22.360Z,38.7
2022-08-09T16:04:22.348Z,38.6
2022-08-09T16:07:22.358Z,38.3
2022-08-09T16:10:22.379Z,38.2
2022-08-09T16:13:22.377Z,38
2022-08-09T16:16:22.386Z,37.9
2022-08-09T16:19:22.367Z,37.8
2022-08-09T16:22:22.394Z,37.7
2022-08-09T16:25:22.395Z,37.6
2022-08-09T16:28:22.398Z,37.6
2022-08-09T16:31:22.397Z,37.3
2022-08-09T16:34:22.408Z,37.1
2022-08-09T16:37:22.417Z,36.8
2022-08-09T16:40:22.424Z,36.3
2022-08-09T16:43:22.411Z,36
2022-08-09T16:46:22.414Z,35.6
2022-08-09T16:49:22.436Z,35.2
2022-08-09T16:52:22.443Z,34.9
2022-08-09T16:55:22.444Z,34.6
2022-08-09T16:58:22.463Z,34.4
2022-08-09T17:01:22.461Z,34.2
2022-08-09T17:04:22.462Z,33.9
2022-08-09T17:07:24.893Z,33.7
2022-08-09T17:10:22.473Z,33.4
2022-08-09T17:13:22.484Z,33.2
2022-08-09T17:16:22.487Z,33.1
2022-08-09T17:19:22.490Z,32.9
2022-08-09T17:22:22.494Z,32.9
2022-08-09T17:25:22.496Z,32.9
2022-08-09T17:28:22.489Z,32.8
2022-08-09T17:31:22.496Z,32.6
2022-08-09T17:34:22.518Z,32.4
2022-08-09T17:37:22.524Z,32.2
2022-08-09T17:40:22.522Z,32
2022-08-09T17:43:22.537Z,31.8
2022-08-09T17:46:22.521Z,31.7
2022-08-09T17:49:22.526Z,31.6
2022-08-09T17:52:22.546Z,31.6
2022-08-09T17:55:22.535Z,31.5
2022-08-09T17:58:22.543Z,31.3
2022-08-09T18:01:22.555Z,31.2
2022-08-09T18:04:22.551Z,31.2
2022-08-09T18:07:22.572Z,31
2022-08-09T18:10:24.028Z,30.9
2022-08-09T18:13:22.577Z,30.8
2022-08-09T18:16:22.598Z,30.8
2022-08-09T18:19:22.596Z,30.6
2022-08-09T18:22:22.606Z,30.4
2022-08-09T18:25:22.593Z,30.2
2022-08-09T18:28:22.626Z,29.9
2022-08-09T18:31:22.603Z,29.7
2022-08-09T18:34:22.613Z,29.5
2022-08-09T18:37:23.559Z,29.4
2022-08-09T18:40:22.631Z,29.4
2022-08-09T18:43:22.627Z,29.4
2022-08-09T18:46:22.642Z,29.4
2022-08-09T18:49:22.654Z,29.3
2022-08-09T18:52:22.656Z,29.2
2022-08-09T18:55:22.667Z,29
2022-08-09T18:58:22.665Z,28.8
2022-08-09T19:01:22.676Z,28.5
2022-08-09T19:04:22.689Z,28.3
2022-08-09T19:07:22.674Z,28.1
2022-08-09T19:10:22.695Z,27.9
2022-08-09T19:13:22.688Z,27.6
2022-08-09T19:16:22.690Z,27.4
2022-08-09T19:19:22.712Z,27.2
2022-08-09T19:22:22.712Z,27
2022-08-09T19:25:22.715Z,26.9
2022-08-09T19:28:22.701Z,26.8
2022-08-09T19:31:22.710Z,26.5
2022-08-09T19:34:22.729Z,26.4
2022-08-09T19:37:22.734Z,26.3
2022-08-09T19:40:22.734Z,26.1
2022-08-09T19:43:22.745Z,26
2022-08-09T19:46:22.752Z,25.8
2022-08-09T19:49:22.734Z,25.7
2022-08-09T19:52:22.749Z,25.6
2022-08-09T19:55:22.756Z,25.5
2022-08-09T19:58:22.765Z,25.3
2022-08-09T20:01:22.773Z,25.3
2022-08-09T20:04:22.768Z,25.1
2022-08-09T20:07:22.774Z,25
2022-08-09T20:10:22.782Z,24.9
2022-08-09T20:13:22.812Z,24.8
2022-08-09T20:16:22.795Z,24.7
2022-08-09T20:19:22.788Z,24.6
2022-08-09T20:22:22.800Z,24.5
2022-08-09T20:25:22.806Z,24.4
2022-08-09T20:28:22.834Z,24.4
2022-08-09T20:31:22.819Z,24.3
2022-08-09T20:34:22.835Z,24.2
2022-08-09T20:37:22.825Z,24.1
2022-08-09T20:40:22.821Z,24
2022-08-09T20:43:22.830Z,24
2022-08-09T20:46:22.837Z,23.9
2022-08-09T20:49:22.870Z,23.8
2022-08-09T20:52:22.861Z,23.8
2022-08-09T20:55:22.856Z,23.7
2022-08-09T20:58:22.858Z,23.6
2022-08-09T21:01:22.856Z,23.6
2022-08-09T21:04:22.866Z,23.5
2022-08-09T21:07:22.888Z,23.4
2022-08-09T21:10:22.865Z,23.4
2022-08-09T21:13:22.879Z,23.3
2022-08-09T21:16:22.878Z,23.3
2022-08-09T21:19:22.876Z,23.2
2022-08-09T21:22:22.880Z,23.2
2022-08-09T21:25:22.900Z,23.1
2022-08-09T21:28:22.912Z,23.1
2022-08-09T21:31:22.902Z,23
2022-08-09T21:34:22.910Z,23
2022-08-09T21:37:22.931Z,22.9
2022-08-09T21:40:22.951Z,22.9
2022-08-09T21:43:22.925Z,22.9
2022-08-09T21:46:22.933Z,22.8
2022-08-09T21:49:22.929Z,22.8
2022-08-09T21:52:22.923Z,22.7
2022-08-09T21:55:22.939Z,22.7
2022-08-09T21:58:22.941Z,22.7
2022-08-09T22:01:22.951Z,22.6
2022-08-09T22:04:22.943Z,22.6
2022-08-09T22:07:22.962Z,22.6
2022-08-09T22:10:22.950Z,22.5
2022-08-09T22:13:22.966Z,22.5
2022-08-09T22:16:22.971Z,22.4
2022-08-09T22:19:22.975Z,22.4
2022-08-09T22:22:22.982Z,22.3
2022-08-09T22:25:22.983Z,22.2
2022-08-09T22:28:23.002Z,22.2
2022-08-09T22:31:23.008Z,22.2
2022-08-09T22:34:22.995Z,22.1
2022-08-09T22:37:22.998Z,22.1
2022-08-09T22:40:23.014Z,22.1
2022-08-09T22:48:04.413Z,22
2022-08-09T22:49:23.027Z,21.9
2022-08-09T22:52:23.030Z,21.9
2022-08-09T22:55:23.044Z,21.8
2022-08-09T22:58:23.026Z,21.8
2022-08-09T23:01:23.045Z,21.8
2022-08-09T23:04:23.051Z,21.7
2022-08-09T23:07:23.041Z,21.7
2022-08-09T23:10:23.069Z,21.7
2022-08-09T23:13:23.057Z,21.6
2022-08-09T23:16:23.073Z,21.6
2022-08-09T23:19:23.135Z,21.5
2022-08-09T23:22:23.068Z,21.5
2022-08-09T23:25:23.076Z,21.5
2022-08-09T23:28:23.083Z,21.4
2022-08-09T23:31:23.091Z,21.4
2022-08-09T23:34:23.116Z,21.4
2022-08-09T23:37:23.103Z,21.3
2022-08-09T23:40:23.114Z,21.3
2022-08-09T23:43:23.131Z,21.3
2022-08-09T23:46:23.131Z,21.2
2022-08-09T23:49:23.132Z,21.2
2022-08-09T23:52:23.153Z,21.2
2022-08-09T23:55:24.497Z,21.1
2022-08-09T23:58:23.144Z,21.1
